Airfield :
LOGIN :

Register | Disclaimer

   EN    FR    IT 

 










Legend :    VFR   Marginal VFR   IFR   Intensive IFR   Very Intensive IFR
Visi :
Ceiling :
>= 8 km
>= 3000ft
5 to 8 km
1000 to 3000 ft
1500m to 5 km
500 to 1000 ft
800 to 1500m
200 to 500 ft
< 800m
< 200 ft
Symbols :   Thunderstorms  Fog  Heavy snow  Heavy precipitations  Wind > 20 kt
SIGMETs :     Misc.  Thunderstorms  Icing  Turbulence  Mountain Waves  Volcanic Ashes






- Airport Elevation : 1910 ft
- IATA code : RDZ


LFCR - Rodez

CURRENT METAR :
  • 082030Z AUTO 26011KT 6000 2300 OVC003 01/00 Q1007 TEMPO 1200 OVC001

EXPIRED METARs :
  • 082000Z AUTO 26012KT 9999 -RADZ OVC004 00/00 Q1006 TEMPO 1200 OVC001
  • 081930Z AUTO 26011KT 9999 -RA OVC004 01/00 Q1006 TEMPO 1200 OVC001
  • 081900Z AUTO 26011KT 7000 -SN BKN004 OVC018 01/00 Q1006 TEMPO 1200 OVC001
  • 081830Z AUTO 25011KT 9000 -SNRA OVC005 01/00 Q1005 TEMPO 1200 OVC001
  • 081800Z AUTO 25013KT 9999 -RA OVC005/// ///TCU 01/01 Q1005 TEMPO 1200 OVC001

TAF AMD TAF LFCR
Valid from the 08 at 20:00 until the 09 at 18:00 UTC


082004Z 0820/0918 26008KT 6000 -RASN OVC006
TEMPO 0820/0909 3000 -SN OVC003
PROB40
TEMPO 0820/0906 1200 OVC001
PROB40 0906/0909 1200 BR
BECMG 0909/0911 8000 NSW OVC010
BECMG 0911/0913 SCT012 BKN025
TEMPO 0912/0918 BKN013



MET'MAP, your aeronautical weather chart ! - Copyright ORBIFLY December 2007 - Disclaimer

ORBIFLY MET'MAP TEAM :

Programming & Development : Alexandra Zaïnal
Concept & original design : Baudouin d'Aumeries
Assistance for programming : Marc-Olivier Méhu
Technical & hardware support : Manuel Goepfert

Contact : metmap@orbifly.com




SOURCES & CREDITS :

   NOAA